createdAt,value
2018-04-12T00:00:33.436Z,12.90
2018-04-12T00:03:00.419Z,12.70
2018-04-12T00:05:26.652Z,12.70
2018-04-12T00:07:52.901Z,12.60
2018-04-12T00:10:19.117Z,12.70
2018-04-12T00:12:46.073Z,12.90
2018-04-12T00:15:12.328Z,12.90
2018-04-12T00:17:38.988Z,12.90
2018-04-12T00:20:05.229Z,12.90
2018-04-12T00:22:31.444Z,13.00
2018-04-12T00:24:57.651Z,12.90
2018-04-12T00:27:24.641Z,12.90
2018-04-12T00:29:51.624Z,12.80
2018-04-12T00:32:17.849Z,12.80
2018-04-12T00:34:44.164Z,12.80
2018-04-12T00:37:10.420Z,12.70
2018-04-12T00:39:36.688Z,12.60
2018-04-12T00:42:02.934Z,12.50
2018-04-12T00:44:29.204Z,12.60
2018-04-12T00:46:55.436Z,12.60
2018-04-12T00:49:21.677Z,12.60
2018-04-12T00:51:47.920Z,12.60
2018-04-12T00:54:14.163Z,12.70
2018-04-12T00:56:40.409Z,12.50
2018-04-12T00:59:06.676Z,12.50
2018-04-12T01:01:35.089Z,12.50
2018-04-12T01:04:02.764Z,12.50
2018-04-12T01:06:29.048Z,12.30
2018-04-12T01:08:55.357Z,12.30
2018-04-12T01:11:21.628Z,12.30
2018-04-12T01:13:47.904Z,12.30
2018-04-12T01:16:14.172Z,12.30
2018-04-12T01:18:42.512Z,12.30
2018-04-12T01:21:08.781Z,12.30
2018-04-12T01:23:35.791Z,12.20
2018-04-12T01:26:02.060Z,12.30
2018-04-12T01:28:29.091Z,12.10
2018-04-12T01:30:55.363Z,12.10
2018-04-12T01:33:24.549Z,12.10
2018-04-12T01:35:50.798Z,12.10
2018-04-12T01:38:19.996Z,12.00
2018-04-12T01:40:46.956Z,12.00
2018-04-12T01:43:17.688Z,12.00
2018-04-12T01:45:43.980Z,12.00
2018-04-12T01:48:10.227Z,11.90
2018-04-12T01:50:36.449Z,11.90
2018-04-12T01:53:02.665Z,11.90
2018-04-12T01:55:28.913Z,11.80
2018-04-12T01:57:55.156Z,11.90
2018-04-12T02:00:21.398Z,12.00
2018-04-12T02:02:47.616Z,11.90
2018-04-12T02:05:14.568Z,11.90
2018-04-12T02:07:41.883Z,11.90
2018-04-12T02:10:08.124Z,11.90
2018-04-12T02:12:36.827Z,11.80
2018-04-12T02:15:03.057Z,11.80
2018-04-12T02:17:30.111Z,11.80
2018-04-12T02:19:56.334Z,11.80
2018-04-12T02:22:22.588Z,11.70
2018-04-12T02:24:48.831Z,11.70
2018-04-12T02:27:15.780Z,11.80
2018-04-12T02:29:42.043Z,11.70
2018-04-12T02:32:08.298Z,11.60
2018-04-12T02:34:34.536Z,11.70
2018-04-12T02:37:00.768Z,11.70
2018-04-12T02:39:27.040Z,11.70
2018-04-12T02:41:53.272Z,11.60
2018-04-12T02:44:19.516Z,11.60
2018-04-12T02:46:45.919Z,11.70
2018-04-12T02:49:12.179Z,11.60
2018-04-12T02:51:38.503Z,11.50
2018-04-12T02:54:04.780Z,11.50
2018-04-12T02:56:31.082Z,11.30
2018-04-12T02:58:57.337Z,11.40
2018-04-12T03:01:23.596Z,11.30
2018-04-12T03:03:49.876Z,11.30
2018-04-12T03:06:17.410Z,11.30
2018-04-12T03:08:43.660Z,11.30
2018-04-12T03:11:09.916Z,11.40
2018-04-12T03:13:36.505Z,11.40
2018-04-12T03:16:02.720Z,11.40
2018-04-12T03:18:29.737Z,11.30
2018-04-12T03:20:55.987Z,11.30
2018-04-12T03:23:22.284Z,11.30
2018-04-12T03:25:48.509Z,11.30
2018-04-12T03:28:14.731Z,11.20
2018-04-12T03:30:41.728Z,11.10
2018-04-12T03:33:07.984Z,11.00
2018-04-12T03:35:34.887Z,11.00
2018-04-12T03:38:01.129Z,11.10
2018-04-12T03:40:27.408Z,11.10
2018-04-12T03:42:54.382Z,10.90
2018-04-12T03:45:20.652Z,10.90
2018-04-12T03:47:46.926Z,10.80
2018-04-12T03:50:13.189Z,10.80
2018-04-12T03:52:39.466Z,10.90
2018-04-12T03:55:05.703Z,10.80
2018-04-12T03:57:31.976Z,10.80
2018-04-12T03:59:58.256Z,10.80
2018-04-12T04:02:25.268Z,10.80
2018-04-12T04:04:51.519Z,10.80
2018-04-12T04:07:17.822Z,10.80
2018-04-12T04:09:44.047Z,10.80
2018-04-12T04:12:10.325Z,10.90
2018-04-12T04:18:00.680Z,10.80
2018-04-12T04:20:40.157Z,10.70
2018-04-12T04:23:06.405Z,10.70
2018-04-12T04:25:38.752Z,10.60
2018-04-12T04:28:04.843Z,10.50
2018-04-12T04:30:30.930Z,10.50
2018-04-12T04:32:57.017Z,10.60
2018-04-12T04:35:23.092Z,10.60
2018-04-12T04:37:49.126Z,10.60
2018-04-12T04:40:15.170Z,10.50
2018-04-12T04:42:41.216Z,10.50
2018-04-12T04:45:07.282Z,10.40
2018-04-12T04:47:34.063Z,10.30
2018-04-12T04:50:00.108Z,10.30
2018-04-12T04:52:26.145Z,10.40
2018-04-12T04:54:52.233Z,10.30
2018-04-12T04:57:18.463Z,10.20
2018-04-12T04:59:48.277Z,10.10
2018-04-12T05:02:14.335Z,10.20
2018-04-12T05:04:40.371Z,10.20
2018-04-12T05:07:06.404Z,10.20
2018-04-12T05:09:33.291Z,10.20
2018-04-12T05:12:00.274Z,10.20
2018-04-12T05:14:26.555Z,10.20
2018-04-12T05:16:52.964Z,10.30
2018-04-12T05:19:19.232Z,10.30
2018-04-12T05:21:45.543Z,10.30
2018-04-12T05:24:11.932Z,10.30
2018-04-12T05:26:38.192Z,10.30
2018-04-12T05:29:04.434Z,10.30
2018-04-12T05:31:31.408Z,10.40
2018-04-12T05:33:57.638Z,10.40
2018-04-12T05:36:24.627Z,10.40
2018-04-12T05:38:50.916Z,10.40
2018-04-12T05:41:17.179Z,10.40
2018-04-12T05:43:43.419Z,10.60
2018-04-12T05:46:10.404Z,10.50
2018-04-12T05:48:36.640Z,10.40
2018-04-12T05:51:03.596Z,10.60
2018-04-12T05:53:29.910Z,10.60
2018-04-12T05:55:56.144Z,10.70
2018-04-12T05:58:22.388Z,10.80
2018-04-12T06:00:49.443Z,10.90
2018-04-12T06:03:15.688Z,10.90
2018-04-12T06:05:43.320Z,11.10
2018-04-12T06:08:09.605Z,11.00
2018-04-12T06:10:36.622Z,11.20
2018-04-12T06:13:03.637Z,11.20
2018-04-12T06:15:29.881Z,11.20
2018-04-12T06:17:57.664Z,11.30
2018-04-12T06:20:24.640Z,11.30
2018-04-12T06:22:50.863Z,11.30
2018-04-12T06:25:17.091Z,11.40
2018-04-12T06:27:44.097Z,11.50
2018-04-12T06:30:10.345Z,11.40
2018-04-12T06:32:36.554Z,11.50
2018-04-12T06:35:02.810Z,11.60
2018-04-12T06:37:29.074Z,11.80
2018-04-12T06:39:55.408Z,11.90
2018-04-12T06:42:21.637Z,12.00
2018-04-12T06:44:48.606Z,11.90
2018-04-12T06:47:14.820Z,11.90
2018-04-12T06:49:41.072Z,11.90
2018-04-12T06:52:07.379Z,11.90
2018-04-12T06:54:34.388Z,11.90
2018-04-12T06:57:01.082Z,11.90
2018-04-12T06:59:27.321Z,11.80
2018-04-12T07:01:53.658Z,11.90
2018-04-12T07:04:19.920Z,12.10
2018-04-12T07:06:47.004Z,12.20
2018-04-12T07:09:13.287Z,12.20
2018-04-12T07:11:39.505Z,12.40
2018-04-12T07:14:05.788Z,12.40
2018-04-12T07:16:32.019Z,12.50
2018-04-12T07:18:59.608Z,12.60
2018-04-12T07:21:25.836Z,12.70
2018-04-12T07:23:52.070Z,12.70
2018-04-12T07:26:19.105Z,12.50
2018-04-12T07:28:45.330Z,12.40
2018-04-12T07:31:12.276Z,12.50
2018-04-12T07:33:39.357Z,12.50
2018-04-12T07:36:05.635Z,12.50
2018-04-12T07:38:31.988Z,12.50
2018-04-12T07:40:58.231Z,12.40
2018-04-12T07:43:24.464Z,12.40
2018-04-12T07:45:50.735Z,12.50
2018-04-12T07:48:17.214Z,12.70
2018-04-12T07:50:43.461Z,12.60
2018-04-12T07:53:09.745Z,12.60
2018-04-12T07:55:35.992Z,12.60
2018-04-12T07:58:03.033Z,12.90
2018-04-12T08:03:01.366Z,12.90
2018-04-12T08:05:27.645Z,13.00
2018-04-12T08:07:55.042Z,12.80
2018-04-12T08:10:22.107Z,12.90
2018-04-12T08:12:48.411Z,12.90
2018-04-12T08:15:14.708Z,13.00
2018-04-12T08:17:40.978Z,13.10
2018-04-12T08:20:07.247Z,13.00
2018-04-12T08:22:33.608Z,13.20
2018-04-12T08:24:59.892Z,13.20
2018-04-12T08:27:26.167Z,13.10
2018-04-12T08:29:53.237Z,12.90
2018-04-12T08:32:19.512Z,12.90
2018-04-12T08:34:45.733Z,13.00
2018-04-12T08:37:11.979Z,12.90
2018-04-12T08:39:38.246Z,13.00
2018-04-12T08:42:04.479Z,13.00
2018-04-12T08:44:30.701Z,13.00
2018-04-12T08:46:56.940Z,13.10
2018-04-12T08:49:23.941Z,13.20
2018-04-12T08:51:50.965Z,13.50
2018-04-12T08:54:17.184Z,13.40
2018-04-12T08:56:43.488Z,13.60
2018-04-12T08:59:09.722Z,13.60
2018-04-12T09:01:35.947Z,13.80
2018-04-12T09:04:02.197Z,13.80
2018-04-12T09:06:33.345Z,13.80
2018-04-12T09:08:59.577Z,13.90
2018-04-12T09:11:25.848Z,13.70
2018-04-12T09:13:52.091Z,13.70
2018-04-12T09:16:19.184Z,13.80
2018-04-12T09:18:45.413Z,13.80
2018-04-12T09:21:11.640Z,13.90
2018-04-12T09:23:42.755Z,13.90
2018-04-12T09:26:09.060Z,14.00
2018-04-12T09:28:35.272Z,14.10
2018-04-12T09:31:01.626Z,14.10
2018-04-12T09:33:27.835Z,13.90
2018-04-12T09:35:54.060Z,13.80
2018-04-12T09:38:20.323Z,13.80
2018-04-12T09:40:46.570Z,13.90
2018-04-12T09:43:14.558Z,13.90
2018-04-12T09:45:44.267Z,14.10
2018-04-12T09:48:10.520Z,14.10
2018-04-12T09:50:36.728Z,14.40
2018-04-12T09:53:02.968Z,14.10
2018-04-12T09:55:29.236Z,14.40
2018-04-12T09:57:55.487Z,14.30
2018-04-12T10:00:26.816Z,14.30
2018-04-12T10:02:55.072Z,14.50
2018-04-12T10:05:27.503Z,14.70
2018-04-12T10:08:01.564Z,15.40
2018-04-12T10:10:29.567Z,15.40
2018-04-12T10:12:56.534Z,16.20
2018-04-12T10:15:22.751Z,16.20
2018-04-12T10:17:48.977Z,16.40
2018-04-12T10:20:15.200Z,16.40
2018-04-12T10:22:41.438Z,16.30
2018-04-12T10:25:08.446Z,16.20
2018-04-12T10:27:34.673Z,16.20
2018-04-12T10:30:00.944Z,16.30
2018-04-12T10:32:27.173Z,16.40
2018-04-12T10:34:53.427Z,16.40
2018-04-12T10:37:19.712Z,16.50
2018-04-12T10:39:45.994Z,16.40
2018-04-12T10:42:12.296Z,16.40
2018-04-12T10:44:38.605Z,16.20
2018-04-12T10:47:04.879Z,16.10
2018-04-12T10:49:34.999Z,15.90
2018-04-12T10:52:02.028Z,15.50
2018-04-12T10:54:28.265Z,15.50
2018-04-12T10:56:54.558Z,15.60
2018-04-12T10:59:21.583Z,15.30
2018-04-12T11:01:47.868Z,15.30
2018-04-12T11:04:16.675Z,15.40
2018-04-12T11:06:45.604Z,15.50
2018-04-12T11:09:12.037Z,15.60
2018-04-12T11:11:38.345Z,15.70
2018-04-12T11:14:05.419Z,16.10
2018-04-12T11:16:32.484Z,16.30
2018-04-12T11:18:58.780Z,16.30
2018-04-12T11:21:29.753Z,16.60
2018-04-12T11:23:55.991Z,16.80
2018-04-12T11:26:22.265Z,17.10
2018-04-12T11:28:49.261Z,17.60
2018-04-12T11:31:15.516Z,17.60
2018-04-12T11:33:41.775Z,17.50
2018-04-12T11:36:08.062Z,17.60
2018-04-12T11:38:35.028Z,17.90
2018-04-12T11:41:01.276Z,17.90
2018-04-12T11:43:27.495Z,17.80
2018-04-12T11:45:53.701Z,17.80
2018-04-12T11:48:19.939Z,18.00
2018-04-12T11:50:46.157Z,18.50
2018-04-12T11:53:12.371Z,19.10
2018-04-12T11:55:39.363Z,19.90
2018-04-12T11:58:17.888Z,19.90
2018-04-12T12:00:44.268Z,20.30
2018-04-12T12:03:11.285Z,20.70
2018-04-12T12:05:37.560Z,20.60
2018-04-12T12:08:04.576Z,20.80
2018-04-12T12:10:30.821Z,20.70
2018-04-12T12:12:57.072Z,21.10
2018-04-12T12:15:23.310Z,21.30
2018-04-12T12:17:49.588Z,21.20
2018-04-12T12:20:15.757Z,21.50
2018-04-12T12:22:42.756Z,21.50
2018-04-12T12:25:08.983Z,21.50
2018-04-12T12:27:35.240Z,21.50
2018-04-12T12:30:01.475Z,21.20
2018-04-12T12:32:27.719Z,21.30
2018-04-12T12:34:54.037Z,21.60
2018-04-12T12:37:20.286Z,21.50
2018-04-12T12:39:46.595Z,21.50
2018-04-12T12:42:12.846Z,21.50
2018-04-12T12:44:39.854Z,21.60
2018-04-12T12:47:06.164Z,21.60
2018-04-12T12:49:32.440Z,21.80
2018-04-12T12:51:58.755Z,21.90
2018-04-12T12:54:24.992Z,22.20
2018-04-12T12:56:51.244Z,22.20
2018-04-12T12:59:17.492Z,22.30
2018-04-12T13:01:43.783Z,22.70
2018-04-12T13:04:10.047Z,22.80
2018-04-12T13:06:36.325Z,23.00
2018-04-12T13:09:02.635Z,23.00
2018-04-12T13:11:28.937Z,22.90
2018-04-12T13:13:55.208Z,22.70
2018-04-12T13:16:22.196Z,23.10
2018-04-12T13:18:48.461Z,23.00
2018-04-12T13:21:14.712Z,23.20
2018-04-12T13:23:41.004Z,23.30
2018-04-12T13:26:07.994Z,23.00
2018-04-12T13:28:34.291Z,23.00
2018-04-12T13:31:01.289Z,23.20
2018-04-12T13:33:27.538Z,23.20
2018-04-12T13:35:53.773Z,23.00
2018-04-12T13:38:20.020Z,23.20
2018-04-12T13:40:46.316Z,23.40
2018-04-12T13:43:12.609Z,23.30
2018-04-12T13:45:38.876Z,23.60
2018-04-12T13:48:05.127Z,23.70
2018-04-12T13:50:32.145Z,23.60
2018-04-12T13:52:59.267Z,23.70
2018-04-12T13:55:25.620Z,23.70
2018-04-12T13:57:51.850Z,23.70
2018-04-12T14:00:18.111Z,23.60
2018-04-12T14:02:44.375Z,23.20
2018-04-12T14:05:10.667Z,23.10
2018-04-12T14:07:37.685Z,22.50
2018-04-12T14:10:03.939Z,22.50
2018-04-12T14:12:30.933Z,22.10
2018-04-12T14:14:57.225Z,22.10
2018-04-12T14:17:23.508Z,22.20
2018-04-12T14:19:49.871Z,22.40
2018-04-12T14:22:16.123Z,22.80
2018-04-12T14:24:42.369Z,23.40
2018-04-12T14:27:08.645Z,23.90
2018-04-12T14:29:35.731Z,24.20
2018-04-12T14:32:02.073Z,24.20
2018-04-12T14:34:28.404Z,24.20
2018-04-12T14:36:54.759Z,24.30
2018-04-12T14:39:21.036Z,24.00
2018-04-12T14:41:47.322Z,23.50
2018-04-12T14:44:13.695Z,22.90
2018-04-12T14:46:39.992Z,22.40
2018-04-12T14:49:06.301Z,22.00
2018-04-12T14:51:32.574Z,21.90
2018-04-12T14:53:58.836Z,21.70
2018-04-12T14:56:25.905Z,21.50
2018-04-12T14:58:52.979Z,21.50
2018-04-12T15:01:19.264Z,21.50
2018-04-12T15:03:45.540Z,21.60
2018-04-12T15:06:11.806Z,21.50
2018-04-12T15:08:38.088Z,21.70
2018-04-12T15:11:04.348Z,21.60
2018-04-12T15:13:30.690Z,21.60
2018-04-12T15:15:56.944Z,21.60
2018-04-12T15:18:23.813Z,21.40
2018-04-12T15:20:49.882Z,21.40
2018-04-12T15:23:15.940Z,21.20
2018-04-12T15:25:41.996Z,21.10
2018-04-12T15:28:08.084Z,20.80
2018-04-12T15:30:34.181Z,20.70
2018-04-12T15:33:00.991Z,20.30
2018-04-12T15:35:27.800Z,20.20
2018-04-12T15:37:54.592Z,19.90
2018-04-12T15:40:20.648Z,20.00
2018-04-12T15:42:46.714Z,19.70
2018-04-12T15:45:13.259Z,19.70
2018-04-12T15:47:41.123Z,19.40
2018-04-12T15:50:07.210Z,19.40
2018-04-12T15:52:34.003Z,19.40
2018-04-12T15:55:00.108Z,19.40
2018-04-12T15:57:26.115Z,19.30
2018-04-12T15:59:52.172Z,19.30
2018-04-12T16:02:18.986Z,19.30
2018-04-12T16:04:45.049Z,19.20
2018-04-12T16:07:11.108Z,19.30
2018-04-12T16:09:37.897Z,19.30
2018-04-12T16:12:03.977Z,19.30
2018-04-12T16:14:30.042Z,19.30
2018-04-12T16:16:56.851Z,19.20
2018-04-12T16:19:22.924Z,19.20
2018-04-12T16:21:49.853Z,19.10
2018-04-12T16:24:15.923Z,19.10
2018-04-12T16:26:42.735Z,18.90
2018-04-12T16:29:08.812Z,18.90
2018-04-12T16:31:35.620Z,19.00
2018-04-12T16:34:01.695Z,19.00
2018-04-12T16:36:28.469Z,18.90
2018-04-12T16:38:54.519Z,18.90
2018-04-12T16:41:20.579Z,18.80
2018-04-12T16:43:46.633Z,18.80
2018-04-12T16:46:12.685Z,18.70
2018-04-12T16:48:38.764Z,18.60
2018-04-12T16:51:04.854Z,18.70
2018-04-12T16:53:31.604Z,18.60
2018-04-12T16:55:57.687Z,18.50
2018-04-12T16:58:23.751Z,18.40
2018-04-12T17:00:49.793Z,18.40
2018-04-12T17:03:16.564Z,18.40
2018-04-12T17:05:42.605Z,18.40
2018-04-12T17:08:08.655Z,18.50
2018-04-12T17:10:35.548Z,18.50
2018-04-12T17:13:01.634Z,18.50
2018-04-12T17:15:27.676Z,18.40
2018-04-12T17:17:53.727Z,18.40
2018-04-12T17:20:20.506Z,18.40
2018-04-12T17:22:46.547Z,18.30
2018-04-12T17:25:12.644Z,18.20
2018-04-12T17:27:39.432Z,18.20
2018-04-12T17:30:05.476Z,18.20
2018-04-12T17:32:31.512Z,18.10
2018-04-12T17:34:57.572Z,18.00
2018-04-12T17:37:23.683Z,17.90
2018-04-12T17:39:49.737Z,18.00
2018-04-12T17:42:15.808Z,17.90
2018-04-12T17:44:41.903Z,17.70
2018-04-12T17:47:08.009Z,17.80
2018-04-12T17:49:34.808Z,17.90
2018-04-12T17:52:00.892Z,17.80
2018-04-12T17:54:27.812Z,17.90
2018-04-12T17:56:54.005Z,17.90
2018-04-12T17:59:20.059Z,17.90
2018-04-12T18:01:46.131Z,17.90
2018-04-12T18:04:12.336Z,18.00
2018-04-12T18:06:38.461Z,17.90
2018-04-12T18:09:04.680Z,17.70
2018-04-12T18:11:31.436Z,17.40
2018-04-12T18:13:58.232Z,17.40
2018-04-12T18:16:24.352Z,17.40
2018-04-12T18:18:50.411Z,17.40
2018-04-12T18:21:16.496Z,17.40
2018-04-12T18:23:42.657Z,17.40
2018-04-12T18:26:08.751Z,17.30
2018-04-12T18:28:34.912Z,17.30
2018-04-12T18:31:01.726Z,17.30
2018-04-12T18:33:27.790Z,17.30
2018-04-12T18:35:53.875Z,17.40
2018-04-12T18:38:20.033Z,17.30
2018-04-12T18:40:46.139Z,17.40
2018-04-12T18:43:12.215Z,17.20
2018-04-12T18:45:38.302Z,17.00
2018-04-12T18:48:04.380Z,17.00
2018-04-12T18:50:30.444Z,17.00
2018-04-12T18:52:56.533Z,17.10
2018-04-12T18:55:22.654Z,17.10
2018-04-12T18:57:48.704Z,17.10
2018-04-12T19:00:14.758Z,17.10
2018-04-12T19:02:40.841Z,17.10
2018-04-12T19:05:07.649Z,16.90
2018-04-12T19:07:33.705Z,16.80
2018-04-12T19:09:59.784Z,16.90
2018-04-12T19:12:26.579Z,16.80
2018-04-12T19:14:52.724Z,16.80
2018-04-12T19:17:19.317Z,16.70
2018-04-12T19:19:45.555Z,16.70
2018-04-12T19:22:12.584Z,16.50
2018-04-12T19:24:38.853Z,16.50
2018-04-12T19:27:05.128Z,16.60
2018-04-12T19:29:31.400Z,16.60
2018-04-12T19:31:57.648Z,16.60
2018-04-12T19:34:24.718Z,16.60
2018-04-12T19:36:50.951Z,16.60
2018-04-12T19:39:17.235Z,16.40
2018-04-12T19:41:43.496Z,16.20
2018-04-12T19:44:09.756Z,16.20
2018-04-12T19:46:36.035Z,16.20
2018-04-12T19:49:02.304Z,16.20
2018-04-12T19:51:28.595Z,16.20
2018-04-12T19:53:54.873Z,16.10
2018-04-12T19:56:21.186Z,16.20
2018-04-12T19:58:47.452Z,16.20
2018-04-12T20:01:14.481Z,16.30
2018-04-12T20:03:40.731Z,16.30
2018-04-12T20:06:07.827Z,16.50
2018-04-12T20:08:34.904Z,16.40
2018-04-12T20:11:01.273Z,16.40
2018-04-12T20:13:27.535Z,16.40
2018-04-12T20:15:53.769Z,16.60
2018-04-12T20:18:20.028Z,16.50
2018-04-12T20:20:46.289Z,16.50
2018-04-12T20:23:12.536Z,16.50
2018-04-12T20:25:38.788Z,16.50
2018-04-12T20:28:05.832Z,16.30
2018-04-12T20:30:32.056Z,16.30
2018-04-12T20:32:58.392Z,16.30
2018-04-12T20:35:24.684Z,16.30
2018-04-12T20:37:50.911Z,16.20
2018-04-12T20:40:17.156Z,16.10
2018-04-12T20:42:43.406Z,16.10
2018-04-12T20:45:09.665Z,16.10
2018-04-12T20:47:35.888Z,16.10
2018-04-12T20:50:02.129Z,16.00
2018-04-12T20:52:28.368Z,15.90
2018-04-12T20:54:55.336Z,15.80
2018-04-12T20:57:21.584Z,15.80
2018-04-12T20:59:47.816Z,15.80
2018-04-12T21:02:14.263Z,15.80
2018-04-12T21:04:40.545Z,15.70
2018-04-12T21:07:06.815Z,15.70
2018-04-12T21:09:33.049Z,15.70
2018-04-12T21:11:59.281Z,15.60
2018-04-12T21:14:26.380Z,15.60
2018-04-12T21:16:53.328Z,15.50
2018-04-12T21:19:20.350Z,15.40
2018-04-12T21:21:46.588Z,15.40
2018-04-12T21:24:12.823Z,15.40
2018-04-12T21:26:39.658Z,15.40
2018-04-12T21:29:05.876Z,15.40
2018-04-12T21:31:32.124Z,15.30
2018-04-12T21:33:58.412Z,15.30
2018-04-12T21:36:25.493Z,15.30
2018-04-12T21:38:51.731Z,15.20
2018-04-12T21:41:18.728Z,15.20
2018-04-12T21:43:45.004Z,15.20
2018-04-12T21:46:11.288Z,15.10
2018-04-12T21:48:37.531Z,15.10
2018-04-12T21:51:04.524Z,15.00
2018-04-12T21:53:30.848Z,14.90
2018-04-12T21:55:57.116Z,14.90
2018-04-12T21:58:23.299Z,14.80
2018-04-12T22:00:50.616Z,14.70
2018-04-12T22:03:16.892Z,14.70
2018-04-12T22:05:43.167Z,14.70
2018-04-12T22:08:09.456Z,14.60
2018-04-12T22:10:35.744Z,14.50
2018-04-12T22:13:02.806Z,14.40
2018-04-12T22:15:29.056Z,14.40
2018-04-12T22:17:57.071Z,14.40
2018-04-12T22:20:23.359Z,14.40
2018-04-12T22:22:49.648Z,14.30
2018-04-12T22:25:15.915Z,14.30
2018-04-12T22:27:42.168Z,14.20
2018-04-12T22:30:09.187Z,14.20
2018-04-12T22:32:35.479Z,14.20
2018-04-12T22:35:01.753Z,14.20
2018-04-12T22:37:28.016Z,14.20
2018-04-12T22:39:54.243Z,14.20
2018-04-12T22:42:20.524Z,14.20
2018-04-12T22:44:46.796Z,14.10
2018-04-12T22:47:13.061Z,14.10
2018-04-12T22:49:39.367Z,14.10
2018-04-12T22:52:06.388Z,14.10
2018-04-12T22:54:32.646Z,14.10
2018-04-12T22:56:59.956Z,14.10
2018-04-12T22:59:26.219Z,14.00
2018-04-12T23:01:52.500Z,14.00
2018-04-12T23:04:19.660Z,13.90
2018-04-12T23:06:45.940Z,13.90
2018-04-12T23:09:12.929Z,13.90
2018-04-12T23:11:39.208Z,13.80
2018-04-12T23:14:05.492Z,13.80
2018-04-12T23:16:31.756Z,13.80
2018-04-12T23:18:58.000Z,13.70
2018-04-12T23:21:24.245Z,13.60
2018-04-12T23:23:50.553Z,13.70
2018-04-12T23:26:17.556Z,13.60
2018-04-12T23:28:43.816Z,13.50
2018-04-12T23:31:10.084Z,13.50
2018-04-12T23:33:37.088Z,13.40
2018-04-12T23:36:03.437Z,13.40
2018-04-12T23:38:37.729Z,13.40
2018-04-12T23:41:03.991Z,13.40
2018-04-12T23:43:30.424Z,13.30
2018-04-12T23:45:57.016Z,13.20
2018-04-12T23:48:23.280Z,13.20
2018-04-12T23:50:50.298Z,13.20
2018-04-12T23:53:17.421Z,13.20
2018-04-12T23:55:43.769Z,13.20
2018-04-12T23:58:10.881Z,13.20
